createdAt,value
2022-09-07T00:04:15.874Z,96918.31
2022-09-07T00:09:36.624Z,96920.75
2022-09-07T00:14:57.850Z,96912.28
2022-09-07T00:20:18.588Z,96910.75
2022-09-07T00:25:40.889Z,96909.94
2022-09-07T00:31:02.002Z,96908.56
2022-09-07T00:36:23.695Z,96908.38
2022-09-07T00:41:44.557Z,96901.91
2022-09-07T00:47:34.735Z,96897.56
2022-09-07T00:53:21.808Z,96894.81
2022-09-07T00:58:43.996Z,96890.91
2022-09-07T01:04:04.975Z,96897.56
2022-09-07T01:09:27.625Z,96888.75
2022-09-07T01:14:51.989Z,96880.84
2022-09-07T01:20:49.575Z,96880.00
2022-09-07T01:26:41.540Z,96877.44
2022-09-07T01:32:20.252Z,96871.09
2022-09-07T01:38:02.922Z,96876.44
2022-09-07T01:43:50.215Z,96875.72
2022-09-07T01:49:15.459Z,96884.66
2022-09-07T01:54:46.704Z,96873.81
2022-09-07T02:00:11.032Z,96878.81
2022-09-07T02:05:46.090Z,96868.81
2022-09-07T02:11:28.843Z,96870.34
2022-09-07T02:17:03.480Z,96872.53
2022-09-07T02:22:30.104Z,96866.25
2022-09-07T02:27:57.358Z,96868.34
2022-09-07T02:33:18.494Z,96873.53
2022-09-07T02:38:39.826Z,96885.09
2022-09-07T02:44:02.373Z,96869.38
2022-09-07T02:49:47.190Z,96872.38
2022-09-07T02:55:24.865Z,96869.09
2022-09-07T03:00:53.522Z,96861.53
2022-09-07T03:06:29.495Z,96854.47
2022-09-07T03:11:50.845Z,96859.81
2022-09-07T03:17:13.321Z,96839.63
2022-09-07T03:22:34.946Z,96831.44
2022-09-07T03:27:55.583Z,96845.53
2022-09-07T03:33:17.176Z,96851.38
2022-09-07T03:38:37.910Z,96856.81
2022-09-07T03:44:05.683Z,96856.91
2022-09-07T03:49:26.405Z,96848.75
2022-09-07T03:54:47.359Z,96851.72
2022-09-07T04:00:08.934Z,96860.56
2022-09-07T04:05:35.784Z,96849.19
2022-09-07T04:10:58.167Z,96857.19
2022-09-07T04:16:20.175Z,96860.91
2022-09-07T04:21:41.061Z,96873.34
2022-09-07T04:27:02.418Z,96868.97
2022-09-07T04:32:23.452Z,96876.06
2022-09-07T04:37:45.523Z,96876.06
2022-09-07T04:43:08.212Z,96870.16
2022-09-07T04:48:28.905Z,96868.53
2022-09-07T04:53:51.158Z,96868.53
2022-09-07T04:59:12.186Z,96874.16
2022-09-07T05:04:36.301Z,96873.44
2022-09-07T05:09:57.379Z,96877.38
2022-09-07T05:15:18.223Z,96877.66
2022-09-07T05:20:38.685Z,96875.19
2022-09-07T05:25:59.224Z,96873.91
2022-09-07T05:31:22.015Z,96873.47
2022-09-07T05:36:42.526Z,96877.53
2022-09-07T05:42:03.708Z,96889.81
2022-09-07T05:47:24.586Z,96890.91
2022-09-07T05:52:46.148Z,96883.28
2022-09-07T05:58:06.605Z,96890.84
2022-09-07T06:03:28.057Z,96872.00
2022-09-07T06:08:53.268Z,96880.66
2022-09-07T06:14:13.941Z,96868.31
2022-09-07T06:19:34.652Z,96865.25
2022-09-07T06:24:55.193Z,96870.16
2022-09-07T06:30:16.016Z,96865.81
2022-09-07T06:35:36.736Z,96864.31
2022-09-07T06:52:22.556Z,96868.69
2022-09-07T06:57:43.363Z,96872.34
2022-09-07T07:03:04.333Z,96870.81
2022-09-07T07:08:25.793Z,96875.72
2022-09-07T07:13:46.505Z,96882.44
2022-09-07T07:19:07.058Z,96877.66
2022-09-07T07:24:27.741Z,96876.28
2022-09-07T07:29:48.420Z,96878.22
2022-09-07T07:35:10.125Z,96863.31
2022-09-07T07:40:31.877Z,96873.28
2022-09-07T07:45:55.712Z,96875.13
2022-09-07T07:51:16.592Z,96871.84
2022-09-07T07:56:37.106Z,96879.13
2022-09-07T08:01:57.835Z,96867.81
2022-09-07T08:07:19.429Z,96871.69
2022-09-07T08:12:40.151Z,96871.72
2022-09-07T08:18:01.162Z,96883.38
2022-09-07T08:23:21.876Z,96882.63
2022-09-07T08:28:45.463Z,96887.31
2022-09-07T08:34:07.719Z,96891.81
2022-09-07T08:39:28.398Z,96881.44
2022-09-07T08:45:06.814Z,96873.72
2022-09-07T08:50:33.817Z,96869.88
2022-09-07T08:55:58.439Z,96872.75
2022-09-07T09:01:31.043Z,96872.34
2022-09-07T09:07:22.845Z,96885.19
2022-09-07T09:12:57.830Z,96883.94
2022-09-07T09:18:36.673Z,96883.53
2022-09-07T09:24:02.415Z,96886.16
2022-09-07T09:29:24.030Z,96887.16
2022-09-07T09:35:01.507Z,96881.84
2022-09-07T09:40:31.290Z,96871.03
2022-09-07T09:46:12.437Z,96872.06
2022-09-07T10:09:20.352Z,96868.75
2022-09-07T10:14:46.773Z,96864.25
2022-09-07T10:20:15.772Z,96858.91
2022-09-07T10:25:37.983Z,96857.69
2022-09-07T10:31:17.708Z,96856.38
2022-09-07T10:36:47.376Z,96858.75
2022-09-07T10:42:29.009Z,96869.38
2022-09-07T10:48:19.398Z,96860.72
2022-09-07T11:00:08.763Z,96858.16
2022-09-07T11:05:38.724Z,96849.09
2022-09-07T11:11:11.746Z,96840.28
2022-09-07T11:16:54.707Z,96838.22
2022-09-07T11:22:32.738Z,96823.47
2022-09-07T11:27:58.679Z,96818.41
2022-09-07T11:33:23.251Z,96827.53
2022-09-07T11:38:44.396Z,96818.72
2022-09-07T11:44:18.867Z,96819.13
2022-09-07T11:49:39.458Z,96818.28
2022-09-07T11:55:06.045Z,96811.25
2022-09-07T12:00:55.546Z,96811.94
2022-09-07T12:06:22.598Z,96815.38
2022-09-07T12:12:09.514Z,96811.75
2022-09-07T12:17:51.271Z,96801.44
2022-09-07T12:23:15.325Z,96809.78
2022-09-07T12:28:36.447Z,96808.63
2022-09-07T12:34:31.494Z,96796.50
2022-09-07T12:40:27.235Z,96792.03
2022-09-07T12:45:51.886Z,96789.91
2022-09-07T12:57:32.673Z,96776.03
2022-09-07T13:09:36.803Z,96759.66
2022-09-07T13:15:00.654Z,96761.53
2022-09-07T13:20:30.138Z,96766.03
2022-09-07T13:25:54.299Z,96756.75
2022-09-07T13:31:43.798Z,96753.53
2022-09-07T13:37:06.583Z,96754.34
2022-09-07T13:42:33.602Z,96751.94
2022-09-07T13:48:20.570Z,96747.72
2022-09-07T13:54:01.672Z,96752.59
2022-09-07T13:59:23.834Z,96750.72
2022-09-07T14:04:51.327Z,96739.72
2022-09-07T14:10:19.609Z,96735.78
2022-09-07T14:15:50.943Z,96722.84
2022-09-07T14:21:19.019Z,96729.66
2022-09-07T14:26:46.865Z,96722.56
2022-09-07T14:32:14.978Z,96721.19
2022-09-07T14:37:36.848Z,96719.41
2022-09-07T14:42:58.561Z,96718.84
2022-09-07T14:48:29.230Z,96712.50
2022-09-07T14:54:02.447Z,96705.63
2022-09-07T14:59:33.621Z,96706.66
2022-09-07T15:05:17.906Z,96698.00
2022-09-07T15:10:41.300Z,96698.44
2022-09-07T15:16:05.575Z,96697.84
2022-09-07T15:21:29.858Z,96694.97
2022-09-07T15:27:09.280Z,96686.84
2022-09-07T15:32:29.819Z,96675.88
2022-09-07T15:38:58.917Z,96672.41
2022-09-07T15:43:31.393Z,96666.41
2022-09-07T15:48:55.384Z,96652.06
2022-09-07T15:54:16.772Z,96639.66
2022-09-07T15:59:37.912Z,96640.13
2022-09-07T16:04:58.969Z,96644.84
2022-09-07T16:10:20.530Z,96638.34
2022-09-07T16:15:46.189Z,96635.19
2022-09-07T16:21:12.643Z,96647.41
2022-09-07T16:26:33.683Z,96651.56
2022-09-07T16:37:36.015Z,96664.56
2022-09-07T16:42:57.278Z,96658.53
2022-09-07T16:48:18.010Z,96642.31
2022-09-07T16:53:39.719Z,96634.50
2022-09-07T16:59:03.180Z,96648.91
2022-09-07T17:04:24.512Z,96642.88
2022-09-07T17:09:46.298Z,96638.84
2022-09-07T17:15:08.406Z,96642.78
2022-09-07T17:20:29.322Z,96650.53
2022-09-07T17:25:49.995Z,96660.72
2022-09-07T17:37:01.188Z,96657.59
2022-09-07T17:42:24.600Z,96661.59
2022-09-07T17:47:45.617Z,96655.09
2022-09-07T17:53:06.309Z,96651.25
2022-09-07T17:58:27.232Z,96677.13
2022-09-07T18:03:48.127Z,96679.44
2022-09-07T18:09:08.862Z,96685.84
2022-09-07T18:14:30.211Z,96696.25
2022-09-07T18:19:51.174Z,96677.53
2022-09-07T18:25:11.885Z,96691.09
2022-09-07T18:30:39.851Z,96684.00
2022-09-07T18:36:01.459Z,96680.16
2022-09-07T18:41:22.156Z,96678.38
2022-09-07T18:46:42.844Z,96664.09
2022-09-07T18:57:45.101Z,96661.16
2022-09-07T19:03:05.900Z,96670.59
2022-09-07T19:08:29.922Z,96674.09
2022-09-07T19:14:04.133Z,96670.63
2022-09-07T19:19:26.585Z,96674.53
2022-09-07T19:24:47.202Z,96662.94
2022-09-07T19:30:08.547Z,96667.66
2022-09-07T19:35:30.142Z,96667.84
2022-09-07T19:40:58.584Z,96663.38
2022-09-07T19:46:24.668Z,96651.75
2022-09-07T19:51:46.080Z,96652.59
2022-09-07T19:57:06.864Z,96653.22
2022-09-07T20:02:27.957Z,96637.13
2022-09-07T20:07:49.817Z,96637.75
2022-09-07T20:13:10.605Z,96624.91
2022-09-07T20:18:31.357Z,96625.13
2022-09-07T20:23:52.532Z,96620.44
2022-09-07T20:29:27.406Z,96617.78
2022-09-07T20:34:50.597Z,96619.22
2022-09-07T20:40:11.421Z,96608.03
2022-09-07T20:45:35.247Z,96612.91
2022-09-07T20:51:00.785Z,96621.88
2022-09-07T20:56:24.560Z,96615.16
2022-09-07T21:01:46.744Z,96612.09
2022-09-07T21:07:07.284Z,96620.66
2022-09-07T21:12:27.881Z,96628.19
2022-09-07T21:17:48.495Z,96628.59
2022-09-07T21:23:10.143Z,96621.06
2022-09-07T21:28:31.264Z,96612.88
2022-09-07T21:33:56.966Z,96611.22
2022-09-07T21:39:18.765Z,96608.19
2022-09-07T21:44:39.130Z,96601.66
2022-09-07T21:49:59.733Z,96602.66
2022-09-07T21:55:20.402Z,96592.91
2022-09-07T22:00:41.026Z,96592.28
2022-09-07T22:06:02.987Z,96593.69
2022-09-07T22:11:25.729Z,96593.69
2022-09-07T22:16:46.429Z,96591.06
2022-09-07T22:22:07.262Z,96585.53
2022-09-07T22:27:27.947Z,96575.94
2022-09-07T22:32:52.270Z,96566.38
2022-09-07T22:38:13.107Z,96560.50
2022-09-07T22:43:34.517Z,96552.34
2022-09-07T22:48:57.343Z,96549.94
2022-09-07T22:54:18.294Z,96536.28
2022-09-07T22:59:38.874Z,96541.16
2022-09-07T23:04:59.504Z,96533.63
2022-09-07T23:10:20.009Z,96521.66
2022-09-07T23:15:40.661Z,96521.03
2022-09-07T23:21:02.253Z,96512.09
2022-09-07T23:26:25.124Z,96508.44
2022-09-07T23:31:46.619Z,96507.53
2022-09-07T23:37:07.356Z,96498.81
2022-09-07T23:42:27.855Z,96502.44
2022-09-07T23:47:48.446Z,96496.56
2022-09-07T23:53:09.429Z,96497.41
2022-09-07T23:58:30.374Z,96495.19
